KLM609 EHAM-KSLC
Flight info
| Callsign | KLM609 |
|---|---|
| Flight time | N/A |
| Altitude | 36000 |
| Route | BERGI M90 LONAM DCT BEKET DCT OSBON/M082F360 DCT 63N010W 65N020W 66N030W 6630N04000W/M082F380 66N050W DCT EPMAN/N0470F380 DCT 6530N07000W 64N080W 6030N09000W DCT YYQ DCT 5530N10000W/N0480F400 DCT DURUR DCT BIL DCT JAC CARTR1 |
| Aircraft | B772/H-SDE2E3FGHIJ5LORVWXY/LB1D1 |
Departure
| Time | N/A |
|---|---|
| Airport | Amsterdam Airport Schiphol (EHAM) |
Arrival
| Time | 2026-05-06 23:26 |
|---|---|
| Airport | Salt Lake City International Airport (KSLC) |
| Time | Latitude | Longitude | Altitude | Speed | Heading |
|---|---|---|---|---|---|
| 2026-05-06 20:21 | 60.50316 | -89.99275 | 37731 ft | 508 kts | 230° |
| 2026-05-06 20:21 | 60.45852 | -90.10447 | 37746 ft | 513 kts | 232° |
| 2026-05-06 20:22 | 60.41440 | -90.21819 | 37743 ft | 513 kts | 232° |
| 2026-05-06 20:22 | 60.37020 | -90.33153 | 37757 ft | 513 kts | 232° |
| 2026-05-06 20:23 | 60.32582 | -90.44416 | 37748 ft | 510 kts | 232° |
| 2026-05-06 20:23 | 60.28135 | -90.55619 | 37767 ft | 515 kts | 232° |
| 2026-05-06 20:24 | 60.23659 | -90.66839 | 37759 ft | 512 kts | 232° |
| 2026-05-06 20:24 | 60.19173 | -90.78033 | 37786 ft | 516 kts | 232° |
| 2026-05-06 20:25 | 60.14686 | -90.89180 | 37781 ft | 511 kts | 232° |
| 2026-05-06 20:25 | 60.10191 | -91.00292 | 37798 ft | 515 kts | 232° |
| 2026-05-06 20:26 | 60.05677 | -91.11398 | 37785 ft | 511 kts | 232° |
| 2026-05-06 20:26 | 60.01177 | -91.22416 | 37809 ft | 513 kts | 232° |
| 2026-05-06 20:27 | 59.96649 | -91.33455 | 37806 ft | 515 kts | 231° |
| 2026-05-06 20:27 | 59.92118 | -91.44439 | 37807 ft | 511 kts | 231° |
| 2026-05-06 20:28 | 59.87575 | -91.55408 | 37823 ft | 514 kts | 231° |
| 2026-05-06 20:28 | 59.83029 | -91.66327 | 37827 ft | 511 kts | 231° |
| 2026-05-06 20:29 | 59.78482 | -91.77203 | 37841 ft | 513 kts | 231° |
| 2026-05-06 20:29 | 59.73915 | -91.88074 | 37848 ft | 511 kts | 231° |
| 2026-05-06 20:30 | 59.67094 | -92.04212 | 37855 ft | 513 kts | 231° |
| 2026-05-06 20:31 | 59.62504 | -92.15014 | 37858 ft | 513 kts | 231° |
| 2026-05-06 20:31 | 59.57916 | -92.25755 | 37860 ft | 510 kts | 231° |
| 2026-05-06 20:32 | 59.53322 | -92.36460 | 37872 ft | 512 kts | 231° |
| 2026-05-06 20:32 | 59.48714 | -92.47149 | 37883 ft | 510 kts | 231° |
| 2026-05-06 20:33 | 59.44113 | -92.57772 | 37886 ft | 512 kts | 230° |
| 2026-05-06 20:33 | 59.39496 | -92.68385 | 37886 ft | 509 kts | 230° |
| 2026-05-06 20:34 | 59.34881 | -92.78947 | 37902 ft | 511 kts | 230° |
| 2026-05-06 20:34 | 59.30251 | -92.89492 | 37898 ft | 510 kts | 230° |
| 2026-05-06 20:35 | 59.25625 | -92.99981 | 37912 ft | 509 kts | 230° |
| 2026-05-06 20:35 | 59.20985 | -93.10454 | 37912 ft | 509 kts | 230° |
| 2026-05-06 20:36 | 59.16348 | -93.20872 | 37929 ft | 508 kts | 230° |
| 2026-05-06 20:36 | 59.11699 | -93.31275 | 37930 ft | 509 kts | 230° |
| 2026-05-06 20:37 | 59.07048 | -93.41634 | 37931 ft | 508 kts | 230° |
| 2026-05-06 20:37 | 59.02397 | -93.51942 | 37937 ft | 507 kts | 230° |
| 2026-05-06 20:38 | 58.97734 | -93.62233 | 37950 ft | 509 kts | 230° |
| 2026-05-06 20:38 | 58.93078 | -93.72463 | 37954 ft | 504 kts | 229° |
| 2026-05-06 20:39 | 58.88407 | -93.82684 | 37963 ft | 509 kts | 229° |
| 2026-05-06 20:39 | 58.83749 | -93.92829 | 37951 ft | 501 kts | 229° |
| 2026-05-06 20:40 | 58.79165 | -94.02773 | 37953 ft | 494 kts | 229° |
| 2026-05-06 20:40 | 58.74574 | -94.12694 | 37965 ft | 499 kts | 229° |
| 2026-05-06 20:41 | 58.69869 | -94.22561 | 37958 ft | 503 kts | 227° |
| 2026-05-06 20:41 | 58.65048 | -94.32377 | 37962 ft | 505 kts | 227° |
| 2026-05-06 20:42 | 58.60231 | -94.42151 | 37962 ft | 502 kts | 227° |
| 2026-05-06 20:42 | 58.55440 | -94.51878 | 37975 ft | 502 kts | 227° |
| 2026-05-06 20:43 | 58.50650 | -94.61586 | 37989 ft | 503 kts | 227° |
| 2026-05-06 20:43 | 58.45818 | -94.71341 | 37999 ft | 507 kts | 227° |
| 2026-05-06 20:44 | 58.41007 | -94.81008 | 37991 ft | 504 kts | 227° |
| 2026-05-06 20:44 | 58.36153 | -94.90718 | 38005 ft | 507 kts | 227° |
| 2026-05-06 20:45 | 58.31326 | -95.00330 | 38003 ft | 502 kts | 227° |
| 2026-05-06 20:45 | 58.26511 | -95.09879 | 37999 ft | 497 kts | 226° |
| 2026-05-06 20:46 | 58.21767 | -95.19250 | 38006 ft | 495 kts | 226° |
| 2026-05-06 20:46 | 58.16999 | -95.28628 | 38010 ft | 493 kts | 226° |
| 2026-05-06 20:47 | 58.12239 | -95.37955 | 38019 ft | 492 kts | 226° |
| 2026-05-06 20:47 | 58.07487 | -95.47226 | 38017 ft | 493 kts | 226° |
| 2026-05-06 20:48 | 58.02699 | -95.56529 | 38023 ft | 495 kts | 226° |
| 2026-05-06 20:48 | 57.97886 | -95.65843 | 38024 ft | 496 kts | 226° |
| 2026-05-06 20:49 | 57.93053 | -95.75159 | 38028 ft | 498 kts | 226° |
| 2026-05-06 20:49 | 57.88206 | -95.84461 | 38031 ft | 498 kts | 226° |
| 2026-05-06 20:50 | 57.83341 | -95.93762 | 38028 ft | 499 kts | 226° |
| 2026-05-06 20:50 | 57.78475 | -96.03024 | 38031 ft | 498 kts | 226° |
| 2026-05-06 20:51 | 57.74440 | -96.10676 | 38029 ft | 498 kts | 226° |
| 2026-05-06 20:51 | 57.69569 | -96.19880 | 38032 ft | 497 kts | 226° |
| 2026-05-06 20:52 | 57.64701 | -96.29040 | 38030 ft | 497 kts | 226° |
| 2026-05-06 20:52 | 57.59831 | -96.38169 | 38035 ft | 496 kts | 226° |
| 2026-05-06 20:53 | 57.54960 | -96.47261 | 38035 ft | 495 kts | 226° |
| 2026-05-06 20:53 | 57.50089 | -96.56318 | 38036 ft | 495 kts | 226° |
| 2026-05-06 20:54 | 57.45242 | -96.65294 | 38039 ft | 495 kts | 226° |
| 2026-05-06 20:54 | 57.40362 | -96.74295 | 38045 ft | 495 kts | 226° |
| 2026-05-06 20:55 | 57.35474 | -96.83277 | 38040 ft | 495 kts | 226° |
| 2026-05-06 20:55 | 57.30581 | -96.92231 | 38045 ft | 495 kts | 225° |
| 2026-05-06 20:56 | 57.25679 | -97.01165 | 38043 ft | 496 kts | 225° |
| 2026-05-06 20:56 | 57.20764 | -97.10088 | 38042 ft | 496 kts | 225° |
| 2026-05-06 20:57 | 57.15866 | -97.18947 | 38044 ft | 497 kts | 225° |
| 2026-05-06 20:57 | 57.10925 | -97.27846 | 38045 ft | 497 kts | 225° |
| 2026-05-06 20:58 | 57.05979 | -97.36721 | 38046 ft | 497 kts | 225° |
| 2026-05-06 20:58 | 57.01021 | -97.45581 | 38057 ft | 497 kts | 225° |
| 2026-05-06 20:59 | 56.96058 | -97.54416 | 38052 ft | 497 kts | 225° |
| 2026-05-06 20:59 | 56.91089 | -97.63228 | 38050 ft | 497 kts | 225° |
| 2026-05-06 21:00 | 56.86115 | -97.72013 | 38055 ft | 497 kts | 225° |
| 2026-05-06 21:00 | 56.81136 | -97.80773 | 38050 ft | 497 kts | 225° |
| 2026-05-06 21:01 | 56.76148 | -97.89516 | 38048 ft | 497 kts | 225° |
| 2026-05-06 21:01 | 56.71158 | -97.98228 | 38049 ft | 497 kts | 225° |
| 2026-05-06 21:02 | 56.66157 | -98.06924 | 38064 ft | 497 kts | 225° |
| 2026-05-06 21:02 | 56.61153 | -98.15593 | 38062 ft | 497 kts | 225° |
| 2026-05-06 21:03 | 56.56141 | -98.24241 | 38059 ft | 497 kts | 225° |
| 2026-05-06 21:03 | 56.51126 | -98.32864 | 38059 ft | 497 kts | 225° |
| 2026-05-06 21:04 | 56.46102 | -98.41467 | 38065 ft | 497 kts | 225° |
| 2026-05-06 21:04 | 56.41097 | -98.50006 | 38067 ft | 497 kts | 225° |
| 2026-05-06 21:05 | 56.36052 | -98.58580 | 38064 ft | 498 kts | 225° |
| 2026-05-06 21:05 | 56.31007 | -98.67122 | 38066 ft | 498 kts | 225° |
| 2026-05-06 21:06 | 56.25988 | -98.75588 | 38063 ft | 498 kts | 225° |
| 2026-05-06 21:06 | 56.20893 | -98.84146 | 38066 ft | 498 kts | 225° |
| 2026-05-06 21:07 | 56.15864 | -98.92565 | 38062 ft | 498 kts | 225° |
| 2026-05-06 21:07 | 56.10792 | -99.01023 | 38066 ft | 498 kts | 225° |
| 2026-05-06 21:08 | 56.05712 | -99.09462 | 38065 ft | 498 kts | 225° |
| 2026-05-06 21:08 | 56.00622 | -99.17886 | 38063 ft | 498 kts | 225° |
| 2026-05-06 21:09 | 55.95527 | -99.26288 | 38065 ft | 498 kts | 225° |
| 2026-05-06 21:09 | 55.90430 | -99.34662 | 38064 ft | 498 kts | 225° |
| 2026-05-06 21:10 | 55.85325 | -99.43016 | 38061 ft | 498 kts | 225° |
| 2026-05-06 21:10 | 55.80214 | -99.51351 | 38062 ft | 498 kts | 224° |
| 2026-05-06 21:11 | 55.75095 | -99.59666 | 38062 ft | 498 kts | 224° |
| 2026-05-06 21:11 | 55.69978 | -99.67948 | 38062 ft | 498 kts | 224° |
| 2026-05-06 21:12 | 55.64853 | -99.76212 | 38060 ft | 498 kts | 224° |
| 2026-05-06 21:12 | 55.59724 | -99.84453 | 38062 ft | 498 kts | 224° |
| 2026-05-06 21:13 | 55.54590 | -99.92676 | 38060 ft | 498 kts | 224° |
| 2026-05-06 21:13 | 55.49380 | -100.00722 | 38060 ft | 499 kts | 219° |
| 2026-05-06 21:14 | 55.43617 | -100.07566 | 38061 ft | 500 kts | 214° |
| 2026-05-06 21:14 | 55.37764 | -100.14176 | 38055 ft | 500 kts | 215° |
| 2026-05-06 21:15 | 55.31916 | -100.20810 | 38052 ft | 500 kts | 215° |
| 2026-05-06 21:15 | 55.26086 | -100.27463 | 38055 ft | 500 kts | 215° |
| 2026-05-06 21:16 | 55.20298 | -100.34065 | 38048 ft | 500 kts | 215° |
| 2026-05-06 21:16 | 55.14465 | -100.40694 | 38051 ft | 500 kts | 215° |
| 2026-05-06 21:17 | 55.08623 | -100.47305 | 38050 ft | 500 kts | 215° |
| 2026-05-06 21:17 | 55.02774 | -100.53899 | 38047 ft | 501 kts | 215° |
| 2026-05-06 21:18 | 54.96920 | -100.60476 | 38047 ft | 501 kts | 215° |
| 2026-05-06 21:18 | 54.91059 | -100.67038 | 38049 ft | 501 kts | 215° |
| 2026-05-06 21:19 | 54.85195 | -100.73579 | 38046 ft | 501 kts | 215° |
| 2026-05-06 21:19 | 54.79325 | -100.80106 | 38045 ft | 501 kts | 215° |
| 2026-05-06 21:20 | 54.73450 | -100.86615 | 38048 ft | 501 kts | 215° |
| 2026-05-06 21:20 | 54.67567 | -100.93108 | 38045 ft | 502 kts | 215° |
| 2026-05-06 21:21 | 54.61674 | -100.99591 | 38050 ft | 502 kts | 215° |
| 2026-05-06 21:21 | 54.55779 | -101.06055 | 38051 ft | 502 kts | 215° |
| 2026-05-06 21:22 | 54.49874 | -101.12508 | 38050 ft | 503 kts | 215° |
| 2026-05-06 21:22 | 54.43962 | -101.18943 | 38051 ft | 503 kts | 215° |
| 2026-05-06 21:23 | 54.38048 | -101.25358 | 38068 ft | 503 kts | 215° |
| 2026-05-06 21:23 | 54.32126 | -101.31761 | 38065 ft | 503 kts | 215° |
| 2026-05-06 21:24 | 54.26200 | -101.38146 | 38074 ft | 503 kts | 215° |
| 2026-05-06 21:24 | 54.20265 | -101.44519 | 38070 ft | 504 kts | 215° |
| 2026-05-06 21:25 | 54.14328 | -101.50872 | 38063 ft | 504 kts | 215° |
| 2026-05-06 21:25 | 54.08388 | -101.57206 | 38056 ft | 504 kts | 215° |
| 2026-05-06 21:26 | 54.02445 | -101.63522 | 38073 ft | 504 kts | 215° |
| 2026-05-06 21:26 | 53.96491 | -101.69829 | 38074 ft | 504 kts | 215° |
| 2026-05-06 21:27 | 53.90581 | -101.76067 | 38073 ft | 504 kts | 215° |
| 2026-05-06 21:27 | 53.84583 | -101.82379 | 38308 ft | 510 kts | 215° |
| 2026-05-06 21:27 | 53.81573 | -101.85538 | 38611 ft | 509 kts | 215° |
| 2026-05-06 21:28 | 53.78571 | -101.88681 | 38912 ft | 507 kts | 215° |
| 2026-05-06 21:28 | 53.75579 | -101.91808 | 39146 ft | 506 kts | 215° |
| 2026-05-06 21:28 | 53.72583 | -101.94934 | 39335 ft | 506 kts | 214° |
| 2026-05-06 21:28 | 53.69598 | -101.98046 | 39519 ft | 506 kts | 214° |
| 2026-05-06 21:29 | 53.66595 | -102.01171 | 39721 ft | 506 kts | 214° |
| 2026-05-06 21:29 | 53.63601 | -102.04281 | 39921 ft | 505 kts | 214° |
| 2026-05-06 21:29 | 53.60599 | -102.07395 | 39976 ft | 508 kts | 214° |
| 2026-05-06 21:30 | 53.54572 | -102.13628 | 40042 ft | 508 kts | 214° |
| 2026-05-06 21:30 | 53.48563 | -102.19820 | 40043 ft | 505 kts | 214° |
| 2026-05-06 21:31 | 53.42592 | -102.25953 | 40047 ft | 503 kts | 214° |
| 2026-05-06 21:31 | 53.36631 | -102.32057 | 40040 ft | 502 kts | 214° |
| 2026-05-06 21:32 | 53.30685 | -102.38126 | 40046 ft | 502 kts | 214° |
| 2026-05-06 21:32 | 53.21729 | -102.47230 | 40039 ft | 503 kts | 214° |
| 2026-05-06 21:33 | 53.15736 | -102.53295 | 40049 ft | 504 kts | 214° |
| 2026-05-06 21:33 | 53.09781 | -102.59302 | 40035 ft | 506 kts | 214° |
| 2026-05-06 21:34 | 53.03754 | -102.65363 | 40047 ft | 507 kts | 214° |
| 2026-05-06 21:34 | 52.97715 | -102.71414 | 40041 ft | 508 kts | 214° |
| 2026-05-06 21:35 | 52.91674 | -102.77448 | 40046 ft | 508 kts | 214° |
| 2026-05-06 21:35 | 52.85645 | -102.83450 | 40044 ft | 509 kts | 214° |
| 2026-05-06 21:36 | 52.79583 | -102.89465 | 40047 ft | 508 kts | 214° |
| 2026-05-06 21:36 | 52.73516 | -102.95465 | 40051 ft | 508 kts | 214° |
| 2026-05-06 21:37 | 52.67455 | -103.01440 | 40050 ft | 507 kts | 214° |
| 2026-05-06 21:37 | 52.61394 | -103.07395 | 40049 ft | 507 kts | 214° |
| 2026-05-06 21:38 | 52.55331 | -103.13333 | 40052 ft | 507 kts | 214° |
| 2026-05-06 21:38 | 52.49273 | -103.19248 | 40055 ft | 507 kts | 214° |
| 2026-05-06 21:39 | 52.43208 | -103.25148 | 40057 ft | 507 kts | 214° |
| 2026-05-06 21:39 | 52.37148 | -103.31026 | 40055 ft | 507 kts | 214° |
| 2026-05-06 21:40 | 52.32099 | -103.35908 | 40057 ft | 507 kts | 214° |
| 2026-05-06 21:40 | 52.26025 | -103.41765 | 40058 ft | 507 kts | 214° |
| 2026-05-06 21:41 | 52.19946 | -103.47608 | 40060 ft | 507 kts | 214° |
| 2026-05-06 21:41 | 52.13869 | -103.53430 | 40065 ft | 507 kts | 214° |
| 2026-05-06 21:42 | 52.07784 | -103.59241 | 40067 ft | 507 kts | 214° |
| 2026-05-06 21:42 | 52.01694 | -103.65037 | 40070 ft | 507 kts | 214° |
| 2026-05-06 21:43 | 51.95602 | -103.70818 | 40072 ft | 507 kts | 214° |
| 2026-05-06 21:43 | 51.89504 | -103.76586 | 40075 ft | 508 kts | 214° |
| 2026-05-06 21:44 | 51.83413 | -103.82329 | 40080 ft | 508 kts | 214° |
| 2026-05-06 21:44 | 51.77294 | -103.88080 | 40077 ft | 508 kts | 214° |
| 2026-05-06 21:45 | 51.71188 | -103.93801 | 40080 ft | 508 kts | 214° |
| 2026-05-06 21:45 | 51.65114 | -103.99474 | 40083 ft | 508 kts | 214° |
| 2026-05-06 21:46 | 51.58994 | -104.05172 | 40082 ft | 508 kts | 214° |
| 2026-05-06 21:46 | 51.52872 | -104.10853 | 40074 ft | 508 kts | 214° |
| 2026-05-06 21:47 | 51.46754 | -104.16514 | 40077 ft | 508 kts | 214° |
| 2026-05-06 21:47 | 51.40628 | -104.22164 | 40074 ft | 508 kts | 214° |
| 2026-05-06 21:48 | 51.34502 | -104.27796 | 40067 ft | 508 kts | 214° |
| 2026-05-06 21:48 | 51.28370 | -104.33418 | 40064 ft | 508 kts | 214° |
| 2026-05-06 21:49 | 51.22239 | -104.39020 | 40074 ft | 508 kts | 214° |
| 2026-05-06 21:49 | 51.16103 | -104.44609 | 40068 ft | 507 kts | 214° |
| 2026-05-06 21:50 | 51.09971 | -104.50178 | 40064 ft | 507 kts | 214° |
| 2026-05-06 21:50 | 51.03840 | -104.55728 | 40053 ft | 507 kts | 214° |
| 2026-05-06 21:51 | 50.97714 | -104.61257 | 40057 ft | 507 kts | 214° |
| 2026-05-06 21:51 | 50.91578 | -104.66779 | 40057 ft | 507 kts | 214° |
| 2026-05-06 21:52 | 50.85445 | -104.72281 | 40055 ft | 506 kts | 214° |
| 2026-05-06 21:52 | 50.79312 | -104.77767 | 40052 ft | 506 kts | 214° |
| 2026-05-06 21:53 | 50.73177 | -104.83239 | 40045 ft | 506 kts | 214° |
| 2026-05-06 21:53 | 50.67039 | -104.88698 | 40030 ft | 506 kts | 214° |
| 2026-05-06 21:54 | 50.60860 | -104.94061 | 40033 ft | 507 kts | 213° |
| 2026-05-06 21:54 | 50.54650 | -104.99327 | 40023 ft | 507 kts | 213° |
| 2026-05-06 21:55 | 50.48442 | -105.04581 | 40024 ft | 507 kts | 213° |
| 2026-05-06 21:55 | 50.42282 | -105.09800 | 40026 ft | 506 kts | 214° |
| 2026-05-06 21:56 | 50.36091 | -105.15040 | 40040 ft | 506 kts | 214° |
| 2026-05-06 21:56 | 50.29894 | -105.20270 | 40036 ft | 506 kts | 213° |
| 2026-05-06 21:57 | 50.23698 | -105.25482 | 40027 ft | 505 kts | 213° |
| 2026-05-06 21:57 | 50.17505 | -105.30675 | 40030 ft | 505 kts | 213° |
| 2026-05-06 21:58 | 50.11309 | -105.35856 | 40038 ft | 505 kts | 214° |
| 2026-05-06 21:58 | 50.05119 | -105.41018 | 40042 ft | 505 kts | 214° |
| 2026-05-06 21:59 | 49.98928 | -105.46162 | 40050 ft | 504 kts | 213° |
| 2026-05-06 21:59 | 49.92740 | -105.51291 | 40054 ft | 504 kts | 213° |
| 2026-05-06 22:00 | 49.86555 | -105.56402 | 40054 ft | 504 kts | 213° |
| 2026-05-06 22:00 | 49.80367 | -105.61502 | 40050 ft | 503 kts | 213° |
| 2026-05-06 22:01 | 49.74182 | -105.66582 | 40041 ft | 503 kts | 213° |
| 2026-05-06 22:01 | 49.68041 | -105.71612 | 40033 ft | 503 kts | 213° |
| 2026-05-06 22:02 | 49.61858 | -105.76662 | 40032 ft | 503 kts | 213° |
| 2026-05-06 22:02 | 49.55676 | -105.81697 | 40034 ft | 502 kts | 213° |
| 2026-05-06 22:03 | 49.49489 | -105.86722 | 40016 ft | 502 kts | 213° |
| 2026-05-06 22:03 | 49.43310 | -105.91725 | 40029 ft | 502 kts | 213° |
| 2026-05-06 22:04 | 49.37119 | -105.96724 | 40037 ft | 502 kts | 213° |
| 2026-05-06 22:04 | 49.30931 | -106.01707 | 40025 ft | 503 kts | 213° |
| 2026-05-06 22:05 | 49.24731 | -106.06685 | 40025 ft | 503 kts | 213° |
| 2026-05-06 22:05 | 49.18535 | -106.11644 | 40023 ft | 503 kts | 213° |
| 2026-05-06 22:06 | 49.12339 | -106.16590 | 40029 ft | 503 kts | 213° |
| 2026-05-06 22:06 | 49.06133 | -106.21530 | 40018 ft | 503 kts | 213° |
| 2026-05-06 22:07 | 48.99926 | -106.26457 | 40030 ft | 503 kts | 213° |
| 2026-05-06 22:07 | 48.93718 | -106.31371 | 40015 ft | 503 kts | 213° |
| 2026-05-06 22:08 | 48.87503 | -106.36276 | 40022 ft | 503 kts | 213° |
| 2026-05-06 22:08 | 48.81283 | -106.41172 | 40012 ft | 504 kts | 213° |
| 2026-05-06 22:09 | 48.75052 | -106.46062 | 40019 ft | 504 kts | 212° |
| 2026-05-06 22:09 | 48.68816 | -106.50942 | 40013 ft | 505 kts | 212° |
| 2026-05-06 22:10 | 48.62570 | -106.55817 | 40013 ft | 505 kts | 212° |
| 2026-05-06 22:10 | 48.56318 | -106.60683 | 40009 ft | 506 kts | 212° |
| 2026-05-06 22:11 | 48.50058 | -106.65541 | 40003 ft | 506 kts | 212° |
| 2026-05-06 22:11 | 48.43792 | -106.70390 | 39983 ft | 507 kts | 212° |
| 2026-05-06 22:12 | 48.37558 | -106.75202 | 39975 ft | 507 kts | 212° |
| 2026-05-06 22:12 | 48.31276 | -106.80036 | 39976 ft | 507 kts | 212° |
| 2026-05-06 22:13 | 48.24996 | -106.84855 | 39977 ft | 507 kts | 212° |
| 2026-05-06 22:13 | 48.18704 | -106.89671 | 39978 ft | 507 kts | 212° |
| 2026-05-06 22:14 | 48.12417 | -106.94469 | 39984 ft | 507 kts | 212° |
| 2026-05-06 22:14 | 48.06125 | -106.99258 | 39990 ft | 507 kts | 212° |
| 2026-05-06 22:15 | 47.99838 | -107.04030 | 40013 ft | 507 kts | 212° |
| 2026-05-06 22:15 | 47.93544 | -107.08794 | 40011 ft | 507 kts | 212° |
| 2026-05-06 22:16 | 47.87251 | -107.13544 | 40008 ft | 507 kts | 212° |
| 2026-05-06 22:16 | 47.80958 | -107.18282 | 40001 ft | 507 kts | 212° |
| 2026-05-06 22:17 | 47.74699 | -107.22980 | 40007 ft | 507 kts | 212° |
| 2026-05-06 22:17 | 47.68400 | -107.27696 | 40001 ft | 507 kts | 212° |
| 2026-05-06 22:18 | 47.62093 | -107.32406 | 40004 ft | 507 kts | 212° |
| 2026-05-06 22:18 | 47.55780 | -107.37107 | 39993 ft | 508 kts | 212° |
| 2026-05-06 22:19 | 47.49463 | -107.41798 | 39994 ft | 508 kts | 212° |
| 2026-05-06 22:19 | 47.43141 | -107.46480 | 39984 ft | 508 kts | 212° |
| 2026-05-06 22:20 | 47.36829 | -107.51142 | 39993 ft | 508 kts | 211° |
| 2026-05-06 22:20 | 47.30497 | -107.55806 | 39985 ft | 508 kts | 211° |
| 2026-05-06 22:21 | 47.24172 | -107.60453 | 39990 ft | 508 kts | 211° |
| 2026-05-06 22:21 | 47.17853 | -107.65082 | 39985 ft | 507 kts | 211° |
| 2026-05-06 22:22 | 47.11534 | -107.69700 | 39989 ft | 507 kts | 211° |
| 2026-05-06 22:22 | 47.05220 | -107.74301 | 39979 ft | 507 kts | 211° |
| 2026-05-06 22:23 | 46.98950 | -107.78858 | 39986 ft | 506 kts | 211° |
| 2026-05-06 22:23 | 46.92637 | -107.83435 | 39985 ft | 506 kts | 211° |
| 2026-05-06 22:24 | 46.86324 | -107.88001 | 39979 ft | 506 kts | 211° |
| 2026-05-06 22:24 | 46.79998 | -107.92562 | 39978 ft | 507 kts | 211° |
| 2026-05-06 22:25 | 46.73678 | -107.97108 | 39978 ft | 507 kts | 211° |
| 2026-05-06 22:25 | 46.67350 | -108.01647 | 39958 ft | 507 kts | 211° |
| 2026-05-06 22:26 | 46.61023 | -108.06173 | 39964 ft | 507 kts | 211° |
| 2026-05-06 22:26 | 46.54697 | -108.10687 | 39962 ft | 506 kts | 211° |
| 2026-05-06 22:27 | 46.48370 | -108.15190 | 39957 ft | 506 kts | 211° |
| 2026-05-06 22:27 | 46.42044 | -108.19681 | 39952 ft | 506 kts | 211° |
| 2026-05-06 22:28 | 46.35713 | -108.24164 | 39954 ft | 506 kts | 211° |
| 2026-05-06 22:28 | 46.29376 | -108.28639 | 39946 ft | 507 kts | 211° |
| 2026-05-06 22:29 | 46.23044 | -108.33099 | 39947 ft | 507 kts | 211° |
| 2026-05-06 22:29 | 46.16704 | -108.37553 | 39945 ft | 506 kts | 211° |
| 2026-05-06 22:30 | 46.10369 | -108.41993 | 39942 ft | 506 kts | 211° |
| 2026-05-06 22:30 | 46.04083 | -108.46387 | 39938 ft | 506 kts | 211° |
| 2026-05-06 22:31 | 45.98762 | -108.50098 | 39958 ft | 506 kts | 211° |
| 2026-05-06 22:31 | 45.92424 | -108.54508 | 39942 ft | 506 kts | 211° |
| 2026-05-06 22:32 | 45.85052 | -108.59625 | 39963 ft | 506 kts | 211° |
| 2026-05-06 22:32 | 45.79840 | -108.63512 | 39941 ft | 502 kts | 217° |
| 2026-05-06 22:33 | 45.74136 | -108.69155 | 39956 ft | 497 kts | 221° |
| 2026-05-06 22:33 | 45.68507 | -108.74910 | 39946 ft | 497 kts | 221° |
| 2026-05-06 22:34 | 45.62860 | -108.80622 | 39956 ft | 497 kts | 220° |
| 2026-05-06 22:34 | 45.57306 | -108.86186 | 39952 ft | 498 kts | 220° |
| 2026-05-06 22:35 | 45.51648 | -108.91824 | 39961 ft | 498 kts | 220° |
| 2026-05-06 22:35 | 45.45996 | -108.97443 | 39965 ft | 498 kts | 220° |
| 2026-05-06 22:36 | 45.40314 | -109.03081 | 39969 ft | 498 kts | 220° |
| 2026-05-06 22:36 | 45.34626 | -109.08712 | 39727 ft | 498 kts | 221° |
| 2026-05-06 22:37 | 45.31791 | -109.11511 | 39836 ft | 495 kts | 221° |
| 2026-05-06 22:37 | 45.28962 | -109.14301 | 39898 ft | 494 kts | 221° |
| 2026-05-06 22:37 | 45.23314 | -109.19868 | 39982 ft | 494 kts | 221° |
| 2026-05-06 22:38 | 45.17647 | -109.25441 | 39983 ft | 497 kts | 221° |
| 2026-05-06 22:38 | 45.11968 | -109.31009 | 40003 ft | 498 kts | 221° |
| 2026-05-06 22:39 | 45.06266 | -109.36584 | 40015 ft | 498 kts | 221° |
| 2026-05-06 22:39 | 45.00566 | -109.42142 | 40019 ft | 499 kts | 221° |
| 2026-05-06 22:40 | 44.94886 | -109.47669 | 40021 ft | 498 kts | 221° |
| 2026-05-06 22:40 | 44.89216 | -109.53170 | 40036 ft | 497 kts | 220° |
| 2026-05-06 22:41 | 44.80691 | -109.61419 | 40039 ft | 495 kts | 221° |
| 2026-05-06 22:42 | 44.74985 | -109.66920 | 40020 ft | 493 kts | 221° |
| 2026-05-06 22:42 | 44.69342 | -109.72355 | 40035 ft | 492 kts | 220° |
| 2026-05-06 22:43 | 44.63762 | -109.77716 | 40066 ft | 490 kts | 220° |
| 2026-05-06 22:43 | 44.58123 | -109.83122 | 40058 ft | 492 kts | 220° |
| 2026-05-06 22:44 | 44.52474 | -109.88516 | 40076 ft | 492 kts | 220° |
| 2026-05-06 22:44 | 44.46795 | -109.93931 | 40099 ft | 494 kts | 220° |
| 2026-05-06 22:45 | 44.41091 | -109.99352 | 40071 ft | 496 kts | 220° |
| 2026-05-06 22:45 | 44.35390 | -110.04761 | 40089 ft | 495 kts | 220° |
| 2026-05-06 22:46 | 44.29685 | -110.10162 | 40070 ft | 496 kts | 220° |
| 2026-05-06 22:46 | 44.23964 | -110.15562 | 40087 ft | 496 kts | 220° |
| 2026-05-06 22:47 | 44.18264 | -110.20929 | 40089 ft | 492 kts | 220° |
| 2026-05-06 22:47 | 44.12614 | -110.26236 | 40092 ft | 489 kts | 220° |
| 2026-05-06 22:48 | 44.06989 | -110.31511 | 40104 ft | 486 kts | 220° |
| 2026-05-06 22:48 | 44.01386 | -110.36755 | 40110 ft | 485 kts | 220° |
| 2026-05-06 22:49 | 43.95786 | -110.41979 | 40119 ft | 485 kts | 220° |
| 2026-05-06 22:49 | 43.90179 | -110.47203 | 40130 ft | 487 kts | 220° |
| 2026-05-06 22:50 | 43.84545 | -110.52439 | 40128 ft | 489 kts | 220° |
| 2026-05-06 22:50 | 43.78878 | -110.57691 | 40133 ft | 491 kts | 220° |
| 2026-05-06 22:51 | 43.73219 | -110.62923 | 40138 ft | 493 kts | 220° |
| 2026-05-06 22:51 | 43.67501 | -110.68199 | 40140 ft | 495 kts | 219° |
| 2026-05-06 22:52 | 43.61774 | -110.73496 | 40134 ft | 494 kts | 222° |
| 2026-05-06 22:52 | 43.56550 | -110.79520 | 40140 ft | 487 kts | 229° |
| 2026-05-06 22:53 | 43.51632 | -110.85925 | 40130 ft | 486 kts | 230° |
| 2026-05-06 22:53 | 43.46677 | -110.92272 | 40138 ft | 487 kts | 229° |
| 2026-05-06 22:54 | 43.41661 | -110.98511 | 40132 ft | 486 kts | 228° |
| 2026-05-06 22:54 | 43.36628 | -111.04699 | 40143 ft | 484 kts | 228° |
| 2026-05-06 22:55 | 43.31623 | -111.10825 | 40139 ft | 481 kts | 228° |
| 2026-05-06 22:55 | 43.26629 | -111.16950 | 40120 ft | 482 kts | 228° |
| 2026-05-06 22:56 | 43.21612 | -111.23093 | 40108 ft | 484 kts | 228° |
| 2026-05-06 22:56 | 43.16575 | -111.29241 | 40114 ft | 485 kts | 228° |
| 2026-05-06 22:57 | 43.11528 | -111.35384 | 40114 ft | 486 kts | 227° |
| 2026-05-06 22:57 | 43.06464 | -111.41535 | 40108 ft | 487 kts | 227° |
| 2026-05-06 22:58 | 43.01398 | -111.47674 | 40111 ft | 487 kts | 227° |
| 2026-05-06 22:58 | 42.96326 | -111.53806 | 40107 ft | 487 kts | 227° |
| 2026-05-06 22:59 | 42.91254 | -111.59926 | 40106 ft | 487 kts | 227° |
| 2026-05-06 22:59 | 42.86181 | -111.66031 | 40106 ft | 486 kts | 227° |
| 2026-05-06 23:00 | 42.81152 | -111.72072 | 40102 ft | 485 kts | 227° |
| 2026-05-06 23:00 | 42.76134 | -111.78087 | 40117 ft | 485 kts | 227° |
| 2026-05-06 23:01 | 42.71059 | -111.84155 | 40100 ft | 485 kts | 227° |
| 2026-05-06 23:01 | 42.65992 | -111.90205 | 39623 ft | 486 kts | 227° |
| 2026-05-06 23:01 | 42.63421 | -111.93180 | 39262 ft | 487 kts | 222° |
| 2026-05-06 23:02 | 42.60493 | -111.95590 | 38760 ft | 499 kts | 210° |
| 2026-05-06 23:02 | 42.57213 | -111.97216 | 38020 ft | 506 kts | 199° |
| 2026-05-06 23:02 | 42.53749 | -111.98148 | 37351 ft | 509 kts | 188° |
| 2026-05-06 23:02 | 42.50210 | -111.98368 | 36705 ft | 509 kts | 184° |
| 2026-05-06 23:03 | 42.46666 | -111.98447 | 36013 ft | 509 kts | 183° |
| 2026-05-06 23:03 | 42.43119 | -111.98512 | 35262 ft | 511 kts | 183° |
| 2026-05-06 23:03 | 42.39563 | -111.98594 | 34625 ft | 510 kts | 184° |
| 2026-05-06 23:03 | 42.36027 | -111.98700 | 34124 ft | 506 kts | 184° |
| 2026-05-06 23:04 | 42.32523 | -111.98826 | 33568 ft | 502 kts | 184° |
| 2026-05-06 23:04 | 42.29047 | -111.98965 | 33055 ft | 498 kts | 184° |
| 2026-05-06 23:04 | 42.25600 | -111.99107 | 32552 ft | 493 kts | 184° |
| 2026-05-06 23:04 | 42.22185 | -111.99250 | 31967 ft | 491 kts | 184° |
| 2026-05-06 23:05 | 42.18785 | -111.99392 | 31445 ft | 487 kts | 183° |
| 2026-05-06 23:05 | 42.15409 | -111.99530 | 30950 ft | 483 kts | 183° |
| 2026-05-06 23:05 | 42.12066 | -111.99664 | 30482 ft | 479 kts | 183° |
| 2026-05-06 23:05 | 42.08749 | -111.99798 | 30002 ft | 475 kts | 183° |
| 2026-05-06 23:06 | 42.05464 | -111.99930 | 29474 ft | 471 kts | 183° |
| 2026-05-06 23:06 | 42.02202 | -112.00061 | 28943 ft | 467 kts | 183° |
| 2026-05-06 23:06 | 41.98981 | -112.00190 | 28453 ft | 463 kts | 183° |
| 2026-05-06 23:06 | 41.95788 | -112.00318 | 27940 ft | 460 kts | 183° |
| 2026-05-06 23:07 | 41.92626 | -112.00445 | 27454 ft | 456 kts | 182° |
| 2026-05-06 23:07 | 41.89459 | -112.00571 | 26964 ft | 453 kts | 182° |
| 2026-05-06 23:07 | 41.86318 | -112.00697 | 26475 ft | 450 kts | 182° |
| 2026-05-06 23:07 | 41.83194 | -112.00822 | 26000 ft | 448 kts | 182° |
| 2026-05-06 23:08 | 41.80084 | -112.00945 | 25519 ft | 446 kts | 182° |
| 2026-05-06 23:08 | 41.77036 | -112.01185 | 25040 ft | 444 kts | 187° |
| 2026-05-06 23:08 | 41.73938 | -112.01654 | 24572 ft | 442 kts | 188° |
| 2026-05-06 23:08 | 41.70933 | -112.02187 | 24094 ft | 440 kts | 189° |
| 2026-05-06 23:09 | 41.67910 | -112.02721 | 23613 ft | 440 kts | 188° |
| 2026-05-06 23:09 | 41.64871 | -112.03232 | 23058 ft | 439 kts | 188° |
| 2026-05-06 23:09 | 41.61850 | -112.03714 | 22593 ft | 436 kts | 188° |
| 2026-05-06 23:09 | 41.58846 | -112.04180 | 22131 ft | 433 kts | 188° |
| 2026-05-06 23:10 | 41.55871 | -112.04641 | 21682 ft | 430 kts | 188° |
| 2026-05-06 23:10 | 41.52912 | -112.05174 | 21237 ft | 427 kts | 190° |
| 2026-05-06 23:10 | 41.49984 | -112.05783 | 20790 ft | 425 kts | 191° |
| 2026-05-06 23:10 | 41.47069 | -112.06413 | 20348 ft | 423 kts | 191° |
| 2026-05-06 23:11 | 41.44169 | -112.07035 | 19902 ft | 422 kts | 190° |
| 2026-05-06 23:11 | 41.41280 | -112.07643 | 19466 ft | 420 kts | 190° |
| 2026-05-06 23:11 | 41.38416 | -112.08238 | 19158 ft | 412 kts | 190° |
| 2026-05-06 23:11 | 41.35620 | -112.08812 | 18900 ft | 405 kts | 190° |
| 2026-05-06 23:12 | 41.32856 | -112.09378 | 18581 ft | 399 kts | 190° |
| 2026-05-06 23:12 | 41.30122 | -112.09938 | 18167 ft | 396 kts | 190° |
| 2026-05-06 23:12 | 41.27407 | -112.10493 | 17723 ft | 394 kts | 190° |
| 2026-05-06 23:12 | 41.24712 | -112.11043 | 17294 ft | 390 kts | 190° |
| 2026-05-06 23:13 | 41.22039 | -112.11589 | 16894 ft | 387 kts | 190° |
| 2026-05-06 23:13 | 41.19542 | -112.12123 | 16507 ft | 384 kts | 191° |
| 2026-05-06 23:13 | 41.16914 | -112.12697 | 16121 ft | 381 kts | 191° |
| 2026-05-06 23:13 | 41.14307 | -112.13263 | 15719 ft | 378 kts | 191° |
| 2026-05-06 23:14 | 41.11730 | -112.13819 | 15332 ft | 374 kts | 191° |
| 2026-05-06 23:14 | 41.09162 | -112.14309 | 14957 ft | 372 kts | 186° |
| 2026-05-06 23:14 | 41.06580 | -112.14376 | 14558 ft | 370 kts | 178° |
| 2026-05-06 23:14 | 41.04070 | -112.14031 | 14177 ft | 367 kts | 171° |
| 2026-05-06 23:15 | 41.01532 | -112.13460 | 13717 ft | 364 kts | 170° |
| 2026-05-06 23:15 | 40.99069 | -112.12901 | 13262 ft | 362 kts | 171° |
| 2026-05-06 23:15 | 40.96591 | -112.12352 | 12815 ft | 360 kts | 171° |
| 2026-05-06 23:15 | 40.94126 | -112.11817 | 12370 ft | 358 kts | 171° |
| 2026-05-06 23:16 | 40.91677 | -112.11290 | 11938 ft | 356 kts | 170° |
| 2026-05-06 23:16 | 40.89238 | -112.10805 | 11516 ft | 353 kts | 173° |
| 2026-05-06 23:16 | 40.86801 | -112.10483 | 11121 ft | 350 kts | 175° |
| 2026-05-06 23:16 | 40.84408 | -112.10226 | 11193 ft | 338 kts | 176° |
| 2026-05-06 23:17 | 40.82107 | -112.09982 | 11106 ft | 325 kts | 176° |
| 2026-05-06 23:17 | 40.79899 | -112.09739 | 11035 ft | 312 kts | 176° |
| 2026-05-06 23:17 | 40.77786 | -112.09499 | 10996 ft | 300 kts | 176° |
| 2026-05-06 23:17 | 40.75780 | -112.09267 | 10993 ft | 297 kts | 176° |
| 2026-05-06 23:18 | 40.73667 | -112.09020 | 11005 ft | 303 kts | 176° |
| 2026-05-06 23:18 | 40.71564 | -112.08773 | 10987 ft | 298 kts | 176° |
| 2026-05-06 23:18 | 40.69504 | -112.08531 | 11013 ft | 295 kts | 176° |
| 2026-05-06 23:18 | 40.67494 | -112.08300 | 10806 ft | 296 kts | 176° |
| 2026-05-06 23:19 | 40.65432 | -112.08065 | 10518 ft | 293 kts | 176° |
| 2026-05-06 23:19 | 40.63401 | -112.07833 | 10229 ft | 289 kts | 176° |
| 2026-05-06 23:19 | 40.62091 | -112.07683 | 10026 ft | 280 kts | 176° |
| 2026-05-06 23:19 | 40.59593 | -112.07398 | 9640 ft | 262 kts | 176° |
| 2026-05-06 23:20 | 40.57821 | -112.07195 | 9418 ft | 257 kts | 176° |
| 2026-05-06 23:20 | 40.56103 | -112.06663 | 9280 ft | 246 kts | 153° |
| 2026-05-06 23:20 | 40.54865 | -112.05285 | 9030 ft | 239 kts | 121° |
| 2026-05-06 23:20 | 40.54267 | -112.03275 | 8819 ft | 232 kts | 94° |
| 2026-05-06 23:21 | 40.54341 | -112.01181 | 8620 ft | 229 kts | 73° |
| 2026-05-06 23:21 | 40.54988 | -111.99327 | 8405 ft | 219 kts | 50° |
| 2026-05-06 23:21 | 40.56090 | -111.98003 | 8217 ft | 213 kts | 27° |
| 2026-05-06 23:21 | 40.57458 | -111.97349 | 8015 ft | 208 kts | 6° |
| 2026-05-06 23:22 | 40.58412 | -111.97295 | 7876 ft | 208 kts | 354° |
| 2026-05-06 23:22 | 40.59848 | -111.97480 | 7622 ft | 207 kts | 352° |
| 2026-05-06 23:22 | 40.61278 | -111.97656 | 7353 ft | 205 kts | 353° |
| 2026-05-06 23:22 | 40.62684 | -111.97826 | 7091 ft | 199 kts | 353° |
| 2026-05-06 23:23 | 40.64009 | -111.97980 | 6796 ft | 183 kts | 353° |
| 2026-05-06 23:23 | 40.65231 | -111.98121 | 6558 ft | 171 kts | 353° |
| 2026-05-06 23:23 | 40.66388 | -111.98257 | 6374 ft | 166 kts | 353° |
| 2026-05-06 23:23 | 40.67571 | -111.98396 | 6174 ft | 174 kts | 353° |
| 2026-05-06 23:24 | 40.68784 | -111.98538 | 5932 ft | 175 kts | 352° |
| 2026-05-06 23:24 | 40.69980 | -111.98675 | 5700 ft | 166 kts | 351° |
| 2026-05-06 23:24 | 40.71060 | -111.98798 | 5504 ft | 147 kts | 351° |
| 2026-05-06 23:24 | 40.72034 | -111.98913 | 5345 ft | 138 kts | 351° |
| 2026-05-06 23:25 | 40.73011 | -111.99026 | 5202 ft | 143 kts | 351° |
| 2026-05-06 23:25 | 40.74031 | -111.99148 | 5029 ft | 149 kts | 351° |
| 2026-05-06 23:25 | 40.75072 | -111.99256 | 4791 ft | 149 kts | 350° |
| 2026-05-06 23:25 | 40.76089 | -111.99374 | 4558 ft | 144 kts | 352° |
| 2026-05-06 23:26 | 40.77059 | -111.99496 | 4343 ft | 138 kts | 353° |
| 2026-05-06 23:26 | 40.77978 | -111.99603 | 4237 ft | 121 kts | 354° |
| 2026-05-06 23:26 | 40.78685 | -111.99689 | 4238 ft | 76 kts | 355° |
| 2026-05-06 23:26 | 40.79091 | -111.99738 | 4237 ft | 45 kts | 355° |
| 2026-05-06 23:27 | 40.79307 | -111.99762 | 4235 ft | 18 kts | 0° |
| 2026-05-06 23:27 | 40.79428 | -111.99726 | 4233 ft | 18 kts | 22° |
| 2026-05-06 23:27 | 40.79509 | -111.99650 | 4234 ft | 14 kts | 47° |
| 2026-05-06 23:27 | 40.79539 | -111.99538 | 4235 ft | 14 kts | 99° |
| 2026-05-06 23:28 | 40.79471 | -111.99465 | 4235 ft | 13 kts | 168° |
| 2026-05-06 23:28 | 40.79413 | -111.99456 | 4236 ft | 8 kts | 174° |
| 2026-05-06 23:28 | 40.79357 | -111.99448 | 4235 ft | 8 kts | 174° |
| 2026-05-06 23:28 | 40.79301 | -111.99440 | 4235 ft | 8 kts | 174° |
| 2026-05-06 23:29 | 40.79245 | -111.99434 | 4236 ft | 8 kts | 175° |
| 2026-05-06 23:29 | 40.79189 | -111.99427 | 4236 ft | 8 kts | 175° |
| 2026-05-06 23:29 | 40.79133 | -111.99421 | 4236 ft | 8 kts | 175° |
| 2026-05-06 23:29 | 40.79077 | -111.99416 | 4236 ft | 8 kts | 176° |
| 2026-05-06 23:30 | 40.79020 | -111.99411 | 4236 ft | 8 kts | 175° |
| 2026-05-06 23:30 | 40.78964 | -111.99405 | 4236 ft | 8 kts | 175° |
| 2026-05-06 23:30 | 40.78908 | -111.99399 | 4236 ft | 8 kts | 175° |
| 2026-05-06 23:30 | 40.78852 | -111.99392 | 4236 ft | 8 kts | 175° |
| 2026-05-06 23:31 | 40.78783 | -111.99384 | 4236 ft | 13 kts | 175° |
| 2026-05-06 23:31 | 40.78687 | -111.99369 | 4236 ft | 14 kts | 163° |
| 2026-05-06 23:31 | 40.78654 | -111.99259 | 4236 ft | 14 kts | 86° |
| 2026-05-06 23:31 | 40.78662 | -111.99135 | 4235 ft | 13 kts | 85° |
| 2026-05-06 23:32 | 40.78670 | -111.99019 | 4236 ft | 13 kts | 85° |
| 2026-05-06 23:32 | 40.78678 | -111.98903 | 4235 ft | 13 kts | 85° |
| 2026-05-06 23:32 | 40.78686 | -111.98787 | 4236 ft | 13 kts | 85° |
| 2026-05-06 23:32 | 40.78694 | -111.98671 | 4235 ft | 13 kts | 85° |
| 2026-05-06 23:33 | 40.78666 | -111.98614 | 4235 ft | 8 kts | 172° |
| 2026-05-06 23:33 | 40.78636 | -111.98610 | 4235 ft | 3 kts | 174° |
| 2026-05-06 23:33 | 40.78630 | -111.98609 | 4235 ft | 0 kts | 175° |